WSSS/SIN METAR and TAF weather

Enter ICAO airport designator
Station Type Date Time Source
WSSS METAR 2022/01/19 19:30 UTC NOAA

WSSS 191930Z 32004KT 280V360 9999 FEW016 SCT070 26/22 Q1010 NOSIG


Station Type Date Time Source
WSSS Decoded METAR 2022/01/19 19:30 UTC NOAA

Singapore / Changi Airport, Singapore (WSSS) 01-22N 103-59E 16M
Jan 19, 2022 - 02:30 PM EST / 2022.01.19 1930 UTC
Wind: from the NW (320 degrees) at 5 MPH (4 KT) (direction variable):0
Visibility: greater than 7 mile(s):0
Sky conditions: partly cloudy
Temperature: 78 F (26 C)
Dew Point: 71 F (22 C)
Relative Humidity: 78%
Pressure (altimeter): 29.83 in. Hg (1010 hPa)
ob: WSSS 191930Z 32004KT 280V360 9999 FEW016 SCT070 26/22 Q1010 NOSIG
cycle: 19

Station Type Date Time Source
WSSS TAF 2022/01/19 18:12 UTC NOAA

TAF WSSS 191700Z 1918/2100 01010KT 9999 FEW015 SCT020

Example: see airport list